DONNÉES MÉTÉO

HIER
Time Temp. Dewp. Hum. Directi La vitess Wind gust Bar. 1h Prec. 24h Prec.
00:01 13.5 11.6 88 213 0.8 1.1 1013.2 0.0000 0.0000
00:12 13.4 11.5 88 205 0.3 1.1 1013.3 0.0000 0.0000
00:22 13.3 11.4 88 210 0.8 1.1 1013.4 0.0000 0.0000
00:31 13.2 11.3 88 204 0.8 1.4 1013.4 0.0000 0.0000
00:42 13.2 11.3 88 205 0.3 1.1 1013.4 0.0000 0.0000
00:52 13.1 11.2 88 199 0.8 1.1 1013.3 0.0000 0.0000
01:02 13 11.1 88 209 0.3 1.1 1013.2 0.0000 0.0000
01:12 12.9 11 88 210 0.8 1.4 1013.4 0.1010 0.1000
01:22 12.8 10.9 88 213 0.8 1.1 1013.3 0.1010 0.1000
01:32 12.7 10.8 88 216 0.8 1.4 1013.3 0.1010 0.1000
01:42 12.6 10.7 88 218 0.3 1.1 1013.3 0.1010 0.1000
01:53 12.6 10.7 88 207 0.8 1.1 1013.3 0.1010 0.1000
02:03 12.5 10.6 88 215 0.3 1.1 1013.4 0.0000 0.1000
02:13 12.4 10.6 89 213 0.8 1.1 1013.2 0.0000 0.1000
02:22 12.4 10.6 89 213 0.8 1.4 1013.3 0.0000 0.1000
02:33 12.4 10.6 89 213 0.8 1.1 1013.3 0.0000 0.1000
02:43 12.3 10.5 89 210 0.8 1.4 1013.2 0.0000 0.1000
02:53 12.3 10.5 89 218 0.8 1.1 1013.1 0.0000 0.1000
03:03 12.2 10.4 89 216 0.8 1.1 1013.2 0.0000 0.1000
03:13 12.2 10.4 89 210 0.8 1.1 1013.1 0.0000 0.1000
03:23 12.2 10.4 89 216 0.3 1.1 1013.2 0.0000 0.1000
03:33 12.2 10.4 89 222 0.3 1.1 1013.1 0.0000 0.1000
03:44 12.2 10.4 89 216 0.3 1.1 1013.1 0.0000 0.1000
03:54 12.3 10.5 89 219 0.8 1.1 1013.2 0.0000 0.1000
04:03 12.4 10.6 89 216 0.8 1.1 1013 0.0000 0.1000
04:13 12.4 10.6 89 213 0.8 1.1 1013 0.0000 0.1000
04:24 12.5 10.7 89 210 0.3 1.1 1013 0.0000 0.1000
04:34 12.6 10.8 89 210 0.8 1.1 1012.8 0.0000 0.1000
04:44 12.7 10.9 89 203 0.8 1.1 1012.8 0.0000 0.1000
04:54 12.8 11 89 213 0.8 1.1 1012.8 0.0000 0.1000
05:04 12.8 11 89 212 0.3 1.1 1012.9 0.0000 0.1000
05:14 12.8 11 89 216 0.8 1.4 1013 0.0000 0.1000
05:24 12.9 11.1 89 213 0.8 1.1 1013.1 0.0000 0.1000
05:35 12.9 11.1 89 201 0.8 1.4 1013 0.0000 0.1000
05:45 13 11.2 89 198 0.8 1.4 1012.9 0.0000 0.1000
05:54 13 11.2 89 208 0.8 1.1 1012.9 0.0000 0.1000
06:05 13 11.2 89 208 0.8 1.4 1012.9 0.0000 0.1000
06:15 13 11.4 90 197 0.8 1.7 1012.9 0.0000 0.1000
06:25 13.1 11.5 90 208 0.8 1.7 1012.8 0.0000 0.1000
06:35 13.2 11.6 90 207 0.8 1.4 1012.8 0.0000 0.1000
06:45 13.2 11.6 90 202 0.8 1.4 1012.8 0.0000 0.1000
06:55 13.3 11.7 90 183 0.8 2.2 1012.7 0.0000 0.1000
07:05 13.4 11.8 90 203 0.8 1.1 1012.9 0.0000 0.1000
07:15 13.5 11.9 90 202 0.8 1.7 1012.8 0.0000 0.1000
07:26 13.5 11.9 90 205 0.8 1.1 1012.7 0.0000 0.1000
07:35 13.6 12 90 204 0.8 1.7 1012.8 0.0000 0.1000
07:45 13.7 12.1 90 212 0.8 1.4 1012.8 0.0000 0.1000
07:56 13.7 12.1 90 213 0.8 1.4 1012.7 0.0000 0.1000
08:06 13.8 12.2 90 216 0.8 1.1 1012.7 0.0000 0.1000
08:16 13.9 12.3 90 197 0.8 1.7 1012.7 0.0000 0.1000
08:26 13.9 12.3 90 185 0.8 1.7 1012.8 0.0000 0.1000
08:36 14 12.4 90 194 0.8 1.7 1012.8 0.0000 0.1000
08:46 14.1 12.5 90 202 0.3 1.4 1012.9 0.0000 0.1000
08:56 14.2 12.6 90 193 0.8 1.7 1012.7 0.0000 0.1000
09:07 14.3 12.7 90 198 0.8 1.4 1012.9 0.0000 0.1000
09:16 14.4 12.8 90 194 0.8 1.7 1012.7 0.0000 0.1000
09:26 14.6 13 90 192 0.8 1.7 1012.8 0.0000 0.1000
09:36 14.7 13.1 90 190 0.8 1.7 1012.7 0.0000 0.1000
09:47 14.8 13.2 90 199 0.8 1.4 1012.5 0.0000 0.1000
09:57 15 13.4 90 200 0.8 2.2 1012.7 0.0000 0.1000
10:06 15.3 13.7 90 198 0.3 1.4 1012.8 0.0000 0.1000
10:17 15.5 13.9 90 195 0.3 1.4 1012.7 0.0000 0.1000
10:27 15.9 14.3 90 217 0.8 1.7 1012.5 0.0000 0.1000
10:37 16.2 14.6 90 214 0.8 1.4 1012.4 0.0000 0.1000
10:47 16.4 14.6 89 219 0.8 1.4 1012.4 0.0000 0.1000
10:58 16.7 14.9 89 210 0.8 1.7 1012.3 0.0000 0.1000
11:07 16.9 14.9 88 222 0.8 2.5 1012.4 0.0000 0.1000
11:17 17 14.8 87 196 1.1 2.5 1012.2 0.0000 0.1000
11:27 17 14.6 86 203 0.8 2.2 1012.4 0.0000 0.1000
11:38 17 14.5 85 216 0.8 1.7 1012.3 0.0000 0.1000
11:48 17 14.5 85 206 0.8 2.5 1012.2 0.0000 0.1000
11:57 17 14.5 85 209 0.8 1.7 1012.4 0.0000 0.1000
12:08 17.1 14.6 85 222 0.8 1.4 1012.2 0.0000 0.1000
12:18 17.2 14.7 85 214 0.8 2.2 1012.2 0.0000 0.1000
12:28 17.4 14.9 85 227 0.8 1.1 1012.1 0.0000 0.1000
12:38 17.4 14.7 84 222 0.8 2.2 1012 0.0000 0.1000
12:48 17.5 14.8 84 210 0.8 2.2 1012.1 0.0000 0.1000
12:58 17.6 14.9 84 232 0.8 1.4 1012.1 0.0000 0.1000
13:08 17.6 14.7 83 209 0.8 2.2 1012 0.0000 0.1000
13:19 17.8 14.9 83 219 0.8 1.7 1011.9 0.0000 0.1000
13:29 17.9 14.8 82 195 0.8 2.5 1011.9 0.0000 0.1000
13:38 17.9 14.8 82 206 0.8 2.2 1012 0.0000 0.1000
13:48 18 14.9 82 218 0.8 1.7 1011.8 0.0000 0.1000
13:59 18.2 14.9 81 211 0.8 1.7 1012 0.0000 0.1000
14:09 18.3 15 81 197 0.8 2.2 1012 0.0000 0.1000
14:19 18.5 15.4 82 201 0.8 2.2 1011.7 0.0000 0.1000
14:29 18.8 15.7 82 205 0.8 1.4 1011.6 0.0000 0.1000
14:39 19.1 15.8 81 210 0.8 2.8 1011.6 0.0000 0.1000
14:49 19.3 15.8 80 216 0.8 2.8 1011.4 0.0000 0.1000
14:59 19.5 16 80 225 0.8 2.5 1011.4 0.0000 0.1000
15:10 19.6 16.1 80 208 0.8 2.8 1011.4 0.0000 0.1000
15:20 19.7 16.2 80 210 0.8 2.8 1011.3 0.0000 0.1000
15:29 19.8 16.1 79 225 0.8 2.2 1011.3 0.0000 0.1000
15:40 19.9 16.3 80 211 0.8 2.8 1011.2 0.0000 0.1000
15:50 20 16.1 78 217 0.8 1.7 1011.2 0.0000 0.1000
16:00 20.1 16.1 78 214 0.8 1.7 1011.1 0.0000 0.1000
16:10 20.4 16.2 77 208 0.8 2.5 1011 0.0000 0.1000
16:20 20.4 15.8 75 200 0.8 2.5 1010.8 0.0000 0.1000
16:30 20.5 16.1 76 208 0.8 3.3 1010.7 0.0000 0.1000
16:40 20.6 16 75 202 0.8 1.7 1010.8 0.0000 0.1000
16:50 20.5 15.7 74 150 0.3 2.2 1011 0.0000 0.1000
17:01 20.4 15.8 75 135 0.3 1.1 1010.8 0.0000 0.1000
17:11 20.3 15.7 75 161 0.3 2.8 1010.8 0.0000 0.1000
17:21 20.3 15.9 76 156 0.3 1.1 1010.7 0.0000 0.1000
17:31 20.2 15.8 76 180 0.3 1.4 1011 0.0000 0.1000
17:41 20.1 15.9 77 180 0.3 1.4 1010.8 0.0000 0.1000
17:51 20 15.8 77 206 0.3 1.4 1010.8 0.0000 0.1000
18:01 20 15.8 77 225 0.3 0.8 1010.9 0.0000 0.1000
18:12 19.9 15.8 77 161 0.3 1.1 1010.8 0.0000 0.1000
18:22 19.8 15.9 78 225 0.3 1.7 1010.8 0.0000 0.1000
18:31 19.7 15.8 78 203 0.3 2.2 1010.8 0.0000 0.1000
18:41 19.6 15.7 78 187 0.3 1.7 1010.8 0.0000 0.1000
19:02 19.5 15.6 78 180 0.3 2.5 1010.8 0.0000 0.1000
19:12 19.3 15.4 78 198 0.3 1.4 1010.9 0.0000 0.1000
19:22 19.3 15.4 78 225 0.3 1.4 1011.1 0.0000 0.1000
19:32 19.2 15.1 77 135 0.3 1.1 1011 0.0000 0.1000
19:42 19.1 15.2 78 135 0.3 1.4 1011.2 0.0000 0.1000
19:52 19 15.1 78 90 0.3 0.8 1011.1 0.0000 0.1000
20:03 18.9 15 78 0 0.8 1011.2 0.0000 0.1000
20:13 18.9 15 78 45 0.3 1.1 1011.2 0.0000 0.1000
20:22 18.8 14.9 78 135 0.3 1.4 1011.2 0.0000 0.1000
20:33 18.7 14.8 78 0.3 1.7 1011.4 0.0000 0.1000
20:43 18.7 15 79 135 0.3 0.8 1011.6 0.0000 0.1000
20:53 18.6 14.9 79 135 0.3 1.1 1011.7 0.0000 0.1000
21:02 18.6 14.9 79 270 0.3 1.1 1011.8 0.0000 0.1000
21:13 18.5 14.8 79 0 0.8 1011.8 0.0000 0.1000
21:23 18.4 14.7 79 0.3 0.8 1011.6 0.0000 0.1000
21:33 18.3 14.6 79 315 0.3 0.8 1011.8 0.0000 0.1000
21:43 18.3 14.6 79 210 0.3 1.1 1012 0.0000 0.1000
21:54 18.2 14.5 79 174 0.8 2.5 1011.9 0.0000 0.1000
22:03 18 14.3 79 225 0.3 1.7 1012 0.0000 0.1000
22:13 18 14.3 79 225 0.3 1.1 1012.1 0.0000 0.1000
22:24 17.9 14.2 79 270 0.3 1.1 1011.9 0.0000 0.1000
22:34 17.9 14.2 79 225 0.3 1.1 1011.8 0.0000 0.1000
22:44 17.8 14.1 79 225 0.3 1.4 1011.9 0.0000 0.1000
22:54 17.8 14.1 79 209 0.3 1.4 1011.8 0.0000 0.1000
23:04 17.7 14 79 213 0.3 2.8 1011.9 0.0000 0.1000
23:14 17.7 14 79 188 0.3 1.4 1011.7 0.0000 0.1000
23:24 17.7 14 79 270 0.3 1.4 1011.6 0.0000 0.1000
23:35 17.6 13.9 79 186 0.3 1.1 1011.5 0.0000 0.1000
23:44 17.6 13.9 79 191 0.3 2.2 1011.7 0.0000 0.1000
23:54 17.6 14.1 80 206 0.3 1.4 1011.7 0.0000

SATISTIQUES DU JOUR

2021-09-24
TEMPÉRATURE
MOYEN
16.2
MAXI
20.6
16:40
MINI
12.2
03:03
PRESSION
MOYEN
1012.2
MAXI
1013.4
00:22
MINI
1010.7
16:30
POINT DE ROSÉE
MOYEN
13.5
MAXI
16.3
15:40
MINI
10.4
03:03
HUMIDITÉ
MOYEN
84
MAXI
90
06:15
MINI
74
16:50
LA VITESSE DU VENT
MOYEN
0.6
MAXI
1.1
11:17
WIND GUST
MOYEN
1.6
MAXI
3.3
16:30
DIRECTION DU VENT
PREVAILING
SW
57%
N
0.0
NE
0.7
E
0.7
SE
5.6
S
30.3
SW
57.0
W
2.1
NW
0.7
PRÉCIPITATIONS
RAIN HOUR
0.1
RAIN DAY
0.1
TEMPÉRATURE (°C)
MINI
12.2
MAXI
20.6
MOYEN
16.2
PRESSION (hpa)
MINI
1010.7
MAXI
1013.4
MOYEN
1012.2
DEVICE